Time;durP1;ratioP1;P1;durP2;ratioP2;P2;SDS_P1;SDS_P2;PMS_P1;PMS_P2;Temp;Humidity;BMP_temperature;BMP_pressure;BME280_temperature;BME280_humidity;BME280_pressure;Samples;Min_cycle;Max_cycle;Signal;HPM_P1;HPM_P2
2022/12/08 00:00:00;;;;;;;2.2;2.2;;;;;;;3.4;100.0;100920;;;;
2022/12/08 00:01:04;;;;;;;2.2;2.2;;;;;;;3.4;100.0;100910;;;;
2022/12/08 00:02:00;;;;;;;2.2;2.2;;;;;;;3.4;100.0;100910;;;;
2022/12/08 00:03:00;;;;;;;2.2;2.2;;;;;;;3.5;100.0;100910;;;;
2022/12/08 00:04:03;;;;;;;2.2;2.2;;;;;;;3.5;100.0;100910;;;;
2022/12/08 00:10:00;;;;;;;2.2;2.2;;;;;;;3.4;100.0;100900;;;;
2022/12/08 00:11:00;;;;;;;2.2;2.2;;;;;;;3.3;100.0;100900;;;;
2022/12/08 00:12:03;;;;;;;2.2;2.2;;;;;;;3.3;100.0;100900;;;;
2022/12/08 00:13:00;;;;;;;2.2;2.2;;;;;;;3.3;100.0;100900;;;;
2022/12/08 00:14:00;;;;;;;2.2;2.2;;;;;;;3.3;100.0;100900;;;;
2022/12/08 00:15:01;;;;;;;2.2;2.2;;;;;;;3.4;100.0;100900;;;;
2022/12/08 00:16:00;;;;;;;2.2;2.2;;;;;;;3.4;100.0;100900;;;;
2022/12/08 00:17:02;;;;;;;2.2;2.2;;;;;;;3.4;100.0;100900;;;;
2022/12/08 00:18:00;;;;;;;2.2;2.2;;;;;;;3.4;100.0;100900;;;;
2022/12/08 00:19:00;;;;;;;2.2;2.2;;;;;;;3.4;100.0;100890;;;;
2022/12/08 00:20:00;;;;;;;2.2;2.2;;;;;;;3.4;100.0;100890;;;;
2022/12/08 00:21:00;;;;;;;2.2;2.2;;;;;;;3.4;100.0;100900;;;;
2022/12/08 00:22:00;;;;;;;2.2;2.2;;;;;;;3.4;100.0;100900;;;;
2022/12/08 00:23:00;;;;;;;2.2;2.2;;;;;;;3.4;100.0;100890;;;;
2022/12/08 00:24:00;;;;;;;2.2;2.2;;;;;;;3.4;100.0;100890;;;;
2022/12/08 00:25:00;;;;;;;2.2;2.2;;;;;;;3.4;100.0;100880;;;;
2022/12/08 00:26:01;;;;;;;2.2;2.2;;;;;;;3.4;100.0;100880;;;;
2022/12/08 00:27:01;;;;;;;2.2;2.2;;;;;;;3.5;100.0;100880;;;;
2022/12/08 00:28:00;;;;;;;2.2;2.2;;;;;;;3.5;100.0;100880;;;;
2022/12/08 00:29:00;;;;;;;2.4;2.4;;;;;;;3.5;100.0;100870;;;;
2022/12/08 00:30:00;;;;;;;2.4;2.4;;;;;;;3.5;100.0;100870;;;;
2022/12/08 00:31:06;;;;;;;2.4;2.4;;;;;;;3.5;100.0;100870;;;;
2022/12/08 00:32:00;;;;;;;2.4;2.4;;;;;;;3.5;100.0;100870;;;;
2022/12/08 00:33:00;;;;;;;2.4;2.4;;;;;;;3.5;100.0;100870;;;;
2022/12/08 00:34:00;;;;;;;2.4;2.4;;;;;;;3.5;100.0;100870;;;;
2022/12/08 00:35:00;;;;;;;2.4;2.4;;;;;;;3.5;100.0;100870;;;;
2022/12/08 00:36:08;;;;;;;2.4;2.4;;;;;;;3.5;100.0;100870;;;;
2022/12/08 00:37:00;;;;;;;2.4;2.4;;;;;;;3.6;100.0;100870;;;;
2022/12/08 00:38:01;;;;;;;2.4;2.4;;;;;;;3.6;100.0;100870;;;;
2022/12/08 00:39:00;;;;;;;2.4;2.4;;;;;;;3.5;100.0;100870;;;;
2022/12/08 00:40:00;;;;;;;2.4;2.4;;;;;;;3.5;100.0;100870;;;;
2022/12/08 00:41:00;;;;;;;2.4;2.4;;;;;;;3.5;100.0;100870;;;;
2022/12/08 00:43:00;;;;;;;2.4;2.4;;;;;;;3.5;100.0;100870;;;;
2022/12/08 00:44:00;;;;;;;2.4;2.4;;;;;;;3.5;100.0;100870;;;;
2022/12/08 00:45:00;;;;;;;2.4;2.4;;;;;;;3.5;100.0;100870;;;;
2022/12/08 00:46:00;;;;;;;2.4;2.4;;;;;;;3.5;100.0;100870;;;;
2022/12/08 00:47:00;;;;;;;2.4;2.4;;;;;;;3.6;100.0;100870;;;;
2022/12/08 00:48:00;;;;;;;2.4;2.4;;;;;;;3.6;100.0;100870;;;;
2022/12/08 00:49:00;;;;;;;2.3;2.3;;;;;;;3.5;100.0;100860;;;;
2022/12/08 00:50:00;;;;;;;2.3;2.3;;;;;;;3.5;100.0;100860;;;;
2022/12/08 00:51:00;;;;;;;2.3;2.3;;;;;;;3.6;100.0;100850;;;;
2022/12/08 00:52:00;;;;;;;2.3;2.3;;;;;;;3.6;100.0;100850;;;;
2022/12/08 00:53:00;;;;;;;2.3;2.3;;;;;;;3.5;100.0;100850;;;;
2022/12/08 00:54:00;;;;;;;2.3;2.3;;;;;;;3.5;100.0;100850;;;;
2022/12/08 00:55:00;;;;;;;2.3;2.3;;;;;;;3.6;100.0;100850;;;;
2022/12/08 00:56:00;;;;;;;2.3;2.3;;;;;;;3.6;100.0;100850;;;;
2022/12/08 00:57:00;;;;;;;2.3;2.3;;;;;;;3.6;100.0;100840;;;;
2022/12/08 00:58:00;;;;;;;2.3;2.3;;;;;;;3.6;100.0;100840;;;;
2022/12/08 00:59:00;;;;;;;2.3;2.3;;;;;;;3.6;100.0;100840;;;;
2022/12/08 01:00:00;;;;;;;2.3;2.3;;;;;;;3.6;100.0;100840;;;;
2022/12/08 01:01:01;;;;;;;2.3;2.3;;;;;;;3.6;100.0;100840;;;;
2022/12/08 01:02:00;;;;;;;2.3;2.3;;;;;;;3.6;100.0;100840;;;;
2022/12/08 01:03:00;;;;;;;2.3;2.3;;;;;;;3.6;100.0;100830;;;;
2022/12/08 01:04:02;;;;;;;2.3;2.3;;;;;;;3.6;100.0;100830;;;;
2022/12/08 01:05:00;;;;;;;2.3;2.3;;;;;;;3.6;100.0;100840;;;;
2022/12/08 01:06:02;;;;;;;2.3;2.3;;;;;;;3.6;100.0;100840;;;;
2022/12/08 01:07:00;;;;;;;2.3;2.3;;;;;;;3.5;100.0;100840;;;;
2022/12/08 01:08:00;;;;;;;2.3;2.3;;;;;;;3.5;100.0;100840;;;;
2022/12/08 01:09:00;;;;;;;2.1;2.1;;;;;;;3.7;100.0;100840;;;;
2022/12/08 01:10:00;;;;;;;2.1;2.1;;;;;;;3.7;100.0;100840;;;;
2022/12/08 01:11:04;;;;;;;2.1;2.1;;;;;;;3.6;100.0;100840;;;;
2022/12/08 01:12:00;;;;;;;2.1;2.1;;;;;;;3.6;100.0;100840;;;;
2022/12/08 01:13:00;;;;;;;2.1;2.1;;;;;;;3.6;100.0;100840;;;;
2022/12/08 01:14:00;;;;;;;2.1;2.1;;;;;;;3.6;100.0;100840;;;;
2022/12/08 01:15:03;;;;;;;2.1;2.1;;;;;;;3.5;100.0;100830;;;;
2022/12/08 01:16:00;;;;;;;2.1;2.1;;;;;;;3.5;100.0;100830;;;;
2022/12/08 01:17:00;;;;;;;2.1;2.1;;;;;;;3.5;100.0;100830;;;;
2022/12/08 01:18:00;;;;;;;2.1;2.1;;;;;;;3.5;100.0;100830;;;;
2022/12/08 01:19:00;;;;;;;2.1;2.1;;;;;;;3.6;100.0;100830;;;;
2022/12/08 01:20:00;;;;;;;2.1;2.1;;;;;;;3.6;100.0;100830;;;;
2022/12/08 01:21:01;;;;;;;2.1;2.1;;;;;;;3.6;100.0;100840;;;;
2022/12/08 01:22:00;;;;;;;2.1;2.1;;;;;;;3.6;100.0;100840;;;;
2022/12/08 01:23:00;;;;;;;2.1;2.1;;;;;;;3.6;100.0;100830;;;;
2022/12/08 01:24:01;;;;;;;2.1;2.1;;;;;;;3.6;100.0;100830;;;;
2022/12/08 01:25:00;;;;;;;2.1;2.1;;;;;;;3.7;100.0;100830;;;;
2022/12/08 01:26:05;;;;;;;2.1;2.1;;;;;;;3.7;100.0;100830;;;;
2022/12/08 01:27:00;;;;;;;2.1;2.1;;;;;;;3.6;100.0;100830;;;;
2022/12/08 01:28:00;;;;;;;2.1;2.1;;;;;;;3.6;100.0;100830;;;;
2022/12/08 01:29:00;;;;;;;2.1;2.1;;;;;;;3.6;100.0;100830;;;;
2022/12/08 01:30:00;;;;;;;2.1;2.1;;;;;;;3.6;100.0;100830;;;;
2022/12/08 01:31:00;;;;;;;2.1;2.1;;;;;;;3.7;100.0;100840;;;;
2022/12/08 01:32:00;;;;;;;2.1;2.1;;;;;;;3.7;100.0;100840;;;;
2022/12/08 01:33:00;;;;;;;2.1;2.1;;;;;;;3.6;100.0;100830;;;;
2022/12/08 01:34:00;;;;;;;2.1;2.1;;;;;;;3.6;100.0;100830;;;;
2022/12/08 01:35:00;;;;;;;2.1;2.1;;;;;;;3.6;100.0;100830;;;;
2022/12/08 01:36:03;;;;;;;2.1;2.1;;;;;;;3.6;100.0;100830;;;;
2022/12/08 01:37:00;;;;;;;2.1;2.1;;;;;;;3.6;100.0;100830;;;;
2022/12/08 01:38:00;;;;;;;2.1;2.1;;;;;;;3.6;100.0;100830;;;;
2022/12/08 01:39:00;;;;;;;2.1;2.1;;;;;;;3.7;100.0;100830;;;;
2022/12/08 01:40:00;;;;;;;2.1;2.1;;;;;;;3.7;100.0;100830;;;;
2022/12/08 01:41:00;;;;;;;2.1;2.1;;;;;;;3.6;100.0;100830;;;;
2022/12/08 01:42:00;;;;;;;2.1;2.1;;;;;;;3.6;100.0;100830;;;;
2022/12/08 01:43:00;;;;;;;2.1;2.1;;;;;;;3.5;100.0;100820;;;;
2022/12/08 01:44:01;;;;;;;2.1;2.1;;;;;;;3.5;100.0;100820;;;;
2022/12/08 01:45:02;;;;;;;2.1;2.1;;;;;;;3.6;100.0;100830;;;;
2022/12/08 01:46:00;;;;;;;2.1;2.1;;;;;;;3.6;100.0;100830;;;;
2022/12/08 01:47:01;;;;;;;2.1;2.1;;;;;;;3.7;100.0;100830;;;;
2022/12/08 01:48:06;;;;;;;2.1;2.1;;;;;;;3.7;100.0;100830;;;;
2022/12/08 01:49:00;;;;;;;2.1;2.1;;;;;;;3.6;100.0;100820;;;;
2022/12/08 01:50:01;;;;;;;2.1;2.1;;;;;;;3.6;100.0;100820;;;;
2022/12/08 01:51:00;;;;;;;2.1;2.1;;;;;;;3.6;100.0;100810;;;;
2022/12/08 01:52:10;;;;;;;2.1;2.1;;;;;;;3.6;100.0;100810;;;;
2022/12/08 01:53:07;;;;;;;2.1;2.1;;;;;;;3.7;100.0;100810;;;;
2022/12/08 01:54:01;;;;;;;2.1;2.1;;;;;;;3.7;100.0;100810;;;;
2022/12/08 01:55:10;;;;;;;2.1;2.1;;;;;;;3.7;100.0;100810;;;;
2022/12/08 01:56:05;;;;;;;2.1;2.1;;;;;;;3.7;100.0;100810;;;;
2022/12/08 01:57:10;;;;;;;2.1;2.1;;;;;;;3.7;100.0;100810;;;;
2022/12/08 01:58:10;;;;;;;2.1;2.1;;;;;;;3.7;100.0;100810;;;;
2022/12/08 01:59:00;;;;;;;2.1;2.1;;;;;;;3.6;100.0;100810;;;;
2022/12/08 02:00:04;;;;;;;2.1;2.1;;;;;;;3.6;100.0;100810;;;;
2022/12/08 02:01:00;;;;;;;2.1;2.1;;;;;;;3.6;100.0;100800;;;;
2022/12/08 02:02:00;;;;;;;2.1;2.1;;;;;;;3.6;100.0;100800;;;;
2022/12/08 02:03:02;;;;;;;2.1;2.1;;;;;;;3.7;100.0;100810;;;;
2022/12/08 02:04:01;;;;;;;2.1;2.1;;;;;;;3.7;100.0;100810;;;;
2022/12/08 02:05:01;;;;;;;2.1;2.1;;;;;;;3.6;100.0;100800;;;;
2022/12/08 02:06:01;;;;;;;2.1;2.1;;;;;;;3.6;100.0;100800;;;;
2022/12/08 02:07:07;;;;;;;2.1;2.1;;;;;;;3.5;100.0;100800;;;;
2022/12/08 02:08:03;;;;;;;2.1;2.1;;;;;;;3.5;100.0;100800;;;;
2022/12/08 02:09:01;;;;;;;2.4;2.4;;;;;;;3.6;100.0;100800;;;;
2022/12/08 02:10:02;;;;;;;2.4;2.4;;;;;;;3.6;100.0;100800;;;;
2022/12/08 02:11:00;;;;;;;2.4;2.4;;;;;;;3.6;100.0;100790;;;;
2022/12/08 02:12:00;;;;;;;2.4;2.4;;;;;;;3.6;100.0;100790;;;;
2022/12/08 02:13:00;;;;;;;2.4;2.4;;;;;;;3.6;100.0;100790;;;;
2022/12/08 02:14:02;;;;;;;2.4;2.4;;;;;;;3.6;100.0;100790;;;;
2022/12/08 02:15:05;;;;;;;2.4;2.4;;;;;;;3.6;100.0;100790;;;;
2022/12/08 02:16:10;;;;;;;2.4;2.4;;;;;;;3.6;100.0;100790;;;;
2022/12/08 02:17:10;;;;;;;2.4;2.4;;;;;;;3.6;100.0;100790;;;;
2022/12/08 02:18:00;;;;;;;2.4;2.4;;;;;;;3.6;100.0;100790;;;;
2022/12/08 02:19:20;;;;;;;2.4;2.4;;;;;;;3.5;100.0;100790;;;;
2022/12/08 02:20:10;;;;;;;2.4;2.4;;;;;;;3.5;100.0;100790;;;;
2022/12/08 02:21:10;;;;;;;2.4;2.4;;;;;;;3.5;100.0;100780;;;;
2022/12/08 02:22:08;;;;;;;2.4;2.4;;;;;;;3.5;100.0;100780;;;;
2022/12/08 02:23:09;;;;;;;2.4;2.4;;;;;;;3.5;100.0;100780;;;;
2022/12/08 02:24:10;;;;;;;2.4;2.4;;;;;;;3.5;100.0;100780;;;;
2022/12/08 02:25:00;;;;;;;2.4;2.4;;;;;;;3.6;100.0;100780;;;;
2022/12/08 02:26:03;;;;;;;2.4;2.4;;;;;;;3.6;100.0;100780;;;;
2022/12/08 02:27:01;;;;;;;2.4;2.4;;;;;;;3.5;100.0;100780;;;;
2022/12/08 02:28:10;;;;;;;2.4;2.4;;;;;;;3.5;100.0;100780;;;;
2022/12/08 02:29:00;;;;;;;3.4;3.3;;;;;;;3.5;100.0;100770;;;;
2022/12/08 02:30:04;;;;;;;3.4;3.3;;;;;;;3.5;100.0;100770;;;;
2022/12/08 02:31:10;;;;;;;3.4;3.3;;;;;;;3.5;100.0;100770;;;;
2022/12/08 02:32:10;;;;;;;3.4;3.3;;;;;;;3.5;100.0;100770;;;;
2022/12/08 02:33:03;;;;;;;3.4;3.3;;;;;;;3.5;100.0;100770;;;;
2022/12/08 02:34:05;;;;;;;3.4;3.3;;;;;;;3.5;100.0;100770;;;;
2022/12/08 02:35:09;;;;;;;3.4;3.3;;;;;;;3.6;100.0;100760;;;;
2022/12/08 02:36:03;;;;;;;3.4;3.3;;;;;;;3.6;100.0;100760;;;;
2022/12/08 02:37:10;;;;;;;3.4;3.3;;;;;;;3.6;100.0;100760;;;;
2022/12/08 02:38:00;;;;;;;3.4;3.3;;;;;;;3.6;100.0;100760;;;;
2022/12/08 02:39:08;;;;;;;3.4;3.3;;;;;;;3.5;100.0;100760;;;;
2022/12/08 02:40:01;;;;;;;3.4;3.3;;;;;;;3.5;100.0;100760;;;;
2022/12/08 02:41:01;;;;;;;3.4;3.3;;;;;;;3.6;100.0;100760;;;;
2022/12/08 02:42:07;;;;;;;3.4;3.3;;;;;;;3.6;100.0;100760;;;;
2022/12/08 02:43:04;;;;;;;3.4;3.3;;;;;;;3.5;100.0;100760;;;;
2022/12/08 02:44:10;;;;;;;3.4;3.3;;;;;;;3.5;100.0;100760;;;;
2022/12/08 02:45:05;;;;;;;3.4;3.3;;;;;;;3.6;100.0;100750;;;;
2022/12/08 02:46:04;;;;;;;3.4;3.3;;;;;;;3.6;100.0;100750;;;;
2022/12/08 02:47:04;;;;;;;3.4;3.3;;;;;;;3.5;100.0;100750;;;;
2022/12/08 02:48:00;;;;;;;3.4;3.3;;;;;;;3.5;100.0;100750;;;;
2022/12/08 02:49:01;;;;;;;2.4;2.4;;;;;;;3.5;100.0;100750;;;;
2022/12/08 02:50:00;;;;;;;2.4;2.4;;;;;;;3.5;100.0;100750;;;;
2022/12/08 02:51:00;;;;;;;2.4;2.4;;;;;;;3.5;100.0;100740;;;;
2022/12/08 02:52:10;;;;;;;2.4;2.4;;;;;;;3.5;100.0;100740;;;;
2022/12/08 02:53:01;;;;;;;2.4;2.4;;;;;;;3.6;100.0;100740;;;;
2022/12/08 02:54:01;;;;;;;2.4;2.4;;;;;;;3.6;100.0;100740;;;;
2022/12/08 02:55:04;;;;;;;2.4;2.4;;;;;;;3.6;100.0;100740;;;;
2022/12/08 02:56:03;;;;;;;2.4;2.4;;;;;;;3.6;100.0;100740;;;;
2022/12/08 02:57:03;;;;;;;2.4;2.4;;;;;;;3.6;100.0;100730;;;;
2022/12/08 02:58:01;;;;;;;2.4;2.4;;;;;;;3.6;100.0;100730;;;;
2022/12/08 02:59:07;;;;;;;2.4;2.4;;;;;;;3.6;100.0;100730;;;;
2022/12/08 03:00:04;;;;;;;2.4;2.4;;;;;;;3.6;100.0;100730;;;;
2022/12/08 03:01:08;;;;;;;2.4;2.4;;;;;;;3.5;100.0;100730;;;;
2022/12/08 03:02:10;;;;;;;2.4;2.4;;;;;;;3.5;100.0;100730;;;;
2022/12/08 03:03:03;;;;;;;2.4;2.4;;;;;;;3.5;100.0;100730;;;;
2022/12/08 03:04:00;;;;;;;2.4;2.4;;;;;;;3.5;100.0;100730;;;;
2022/12/08 03:05:06;;;;;;;2.4;2.4;;;;;;;3.5;100.0;100730;;;;
2022/12/08 03:06:00;;;;;;;2.4;2.4;;;;;;;3.5;100.0;100730;;;;
2022/12/08 03:07:03;;;;;;;2.4;2.4;;;;;;;3.5;100.0;100730;;;;
2022/12/08 03:08:10;;;;;;;2.4;2.4;;;;;;;3.5;100.0;100730;;;;
2022/12/08 03:09:01;;;;;;;2.4;2.4;;;;;;;3.6;100.0;100730;;;;
2022/12/08 03:10:10;;;;;;;2.4;2.4;;;;;;;3.6;100.0;100730;;;;
2022/12/08 03:11:00;;;;;;;2.4;2.4;;;;;;;3.6;100.0;100730;;;;
2022/12/08 03:12:08;;;;;;;2.4;2.4;;;;;;;3.6;100.0;100730;;;;
2022/12/08 03:13:03;;;;;;;2.4;2.4;;;;;;;3.6;100.0;100740;;;;
2022/12/08 03:14:02;;;;;;;2.4;2.4;;;;;;;3.6;100.0;100740;;;;
2022/12/08 03:15:05;;;;;;;2.4;2.4;;;;;;;3.6;100.0;100730;;;;
2022/12/08 03:16:02;;;;;;;2.4;2.4;;;;;;;3.6;100.0;100730;;;;
2022/12/08 03:17:00;;;;;;;2.4;2.4;;;;;;;3.6;100.0;100730;;;;
2022/12/08 03:18:00;;;;;;;2.4;2.4;;;;;;;3.6;100.0;100730;;;;
2022/12/08 03:19:07;;;;;;;2.4;2.4;;;;;;;3.6;100.0;100740;;;;
2022/12/08 03:20:03;;;;;;;2.4;2.4;;;;;;;3.6;100.0;100740;;;;
2022/12/08 03:21:00;;;;;;;2.4;2.4;;;;;;;3.6;100.0;100740;;;;
2022/12/08 03:22:02;;;;;;;2.4;2.4;;;;;;;3.6;100.0;100740;;;;
2022/12/08 03:23:04;;;;;;;2.4;2.4;;;;;;;3.6;100.0;100740;;;;
2022/12/08 03:24:01;;;;;;;2.4;2.4;;;;;;;3.6;100.0;100740;;;;
2022/12/08 03:25:00;;;;;;;2.4;2.4;;;;;;;3.5;100.0;100740;;;;
2022/12/08 03:26:03;;;;;;;2.4;2.4;;;;;;;3.5;100.0;100740;;;;
2022/12/08 03:27:02;;;;;;;2.4;2.4;;;;;;;3.5;100.0;100730;;;;
2022/12/08 03:28:00;;;;;;;2.7;2.6;;;;;;;3.5;100.0;100730;;;;
2022/12/08 03:29:00;;;;;;;2.7;2.6;;;;;;;3.5;100.0;100730;;;;
2022/12/08 03:30:01;;;;;;;2.7;2.6;;;;;;;3.5;100.0;100730;;;;
2022/12/08 03:31:05;;;;;;;2.7;2.6;;;;;;;3.5;100.0;100720;;;;
2022/12/08 03:32:03;;;;;;;2.7;2.6;;;;;;;3.5;100.0;100720;;;;
2022/12/08 03:33:05;;;;;;;2.7;2.6;;;;;;;3.6;100.0;100720;;;;
2022/12/08 03:34:01;;;;;;;2.7;2.6;;;;;;;3.6;100.0;100720;;;;
2022/12/08 03:35:02;;;;;;;2.7;2.6;;;;;;;3.6;100.0;100710;;;;
2022/12/08 03:36:01;;;;;;;2.7;2.6;;;;;;;3.6;100.0;100710;;;;
2022/12/08 03:37:01;;;;;;;2.7;2.6;;;;;;;3.6;100.0;100710;;;;
2022/12/08 03:38:01;;;;;;;2.7;2.6;;;;;;;3.6;100.0;100710;;;;
2022/12/08 03:39:00;;;;;;;2.7;2.6;;;;;;;3.6;100.0;100710;;;;
2022/12/08 03:40:00;;;;;;;2.7;2.6;;;;;;;3.6;100.0;100710;;;;
2022/12/08 03:42:00;;;;;;;2.7;2.6;;;;;;;3.6;100.0;100700;;;;
2022/12/08 03:43:00;;;;;;;2.7;2.6;;;;;;;3.6;100.0;100700;;;;
2022/12/08 03:44:00;;;;;;;2.7;2.6;;;;;;;3.6;100.0;100700;;;;
2022/12/08 03:45:00;;;;;;;2.7;2.6;;;;;;;3.6;100.0;100690;;;;
2022/12/08 03:46:00;;;;;;;2.7;2.6;;;;;;;3.6;100.0;100690;;;;
2022/12/08 03:47:00;;;;;;;2.7;2.6;;;;;;;3.7;100.0;100690;;;;
2022/12/08 03:48:00;;;;;;;2.3;2.3;;;;;;;3.7;100.0;100690;;;;
2022/12/08 03:49:00;;;;;;;2.3;2.3;;;;;;;3.7;100.0;100690;;;;
2022/12/08 03:50:00;;;;;;;2.3;2.3;;;;;;;3.7;100.0;100690;;;;
2022/12/08 03:51:00;;;;;;;2.3;2.3;;;;;;;3.7;100.0;100690;;;;
2022/12/08 03:52:00;;;;;;;2.3;2.3;;;;;;;3.7;100.0;100690;;;;
2022/12/08 03:53:00;;;;;;;2.3;2.3;;;;;;;3.7;100.0;100690;;;;
2022/12/08 03:54:00;;;;;;;2.3;2.3;;;;;;;3.7;100.0;100690;;;;
2022/12/08 03:55:00;;;;;;;2.3;2.3;;;;;;;3.7;100.0;100690;;;;
2022/12/08 03:56:02;;;;;;;2.3;2.3;;;;;;;3.7;100.0;100690;;;;
2022/12/08 03:57:00;;;;;;;2.3;2.3;;;;;;;3.7;100.0;100690;;;;
2022/12/08 03:58:00;;;;;;;2.3;2.3;;;;;;;3.7;100.0;100690;;;;
2022/12/08 03:59:00;;;;;;;2.3;2.3;;;;;;;3.7;100.0;100680;;;;
2022/12/08 04:00:00;;;;;;;2.3;2.3;;;;;;;3.7;100.0;100680;;;;
2022/12/08 04:01:00;;;;;;;2.3;2.3;;;;;;;3.6;100.0;100680;;;;
2022/12/08 04:02:00;;;;;;;2.3;2.3;;;;;;;3.6;100.0;100680;;;;
2022/12/08 04:03:00;;;;;;;2.3;2.3;;;;;;;3.6;100.0;100690;;;;
2022/12/08 04:04:00;;;;;;;2.3;2.3;;;;;;;3.6;100.0;100690;;;;
2022/12/08 04:05:00;;;;;;;2.3;2.3;;;;;;;3.7;100.0;100680;;;;
2022/12/08 04:06:00;;;;;;;2.3;2.3;;;;;;;3.7;100.0;100680;;;;
2022/12/08 04:07:00;;;;;;;2.3;2.3;;;;;;;3.7;100.0;100680;;;;
2022/12/08 04:08:00;;;;;;;2.4;2.4;;;;;;;3.7;100.0;100680;;;;
2022/12/08 04:09:00;;;;;;;2.4;2.4;;;;;;;3.7;100.0;100680;;;;
2022/12/08 04:10:00;;;;;;;2.4;2.4;;;;;;;3.7;100.0;100680;;;;
2022/12/08 04:11:00;;;;;;;2.4;2.4;;;;;;;3.7;100.0;100680;;;;
2022/12/08 04:12:00;;;;;;;2.4;2.4;;;;;;;3.7;100.0;100680;;;;
2022/12/08 04:13:00;;;;;;;2.4;2.4;;;;;;;3.8;100.0;100680;;;;
2022/12/08 04:14:00;;;;;;;2.4;2.4;;;;;;;3.8;100.0;100680;;;;
2022/12/08 04:15:00;;;;;;;2.4;2.4;;;;;;;3.7;100.0;100670;;;;
2022/12/08 04:16:00;;;;;;;2.4;2.4;;;;;;;3.7;100.0;100670;;;;
2022/12/08 04:17:00;;;;;;;2.4;2.4;;;;;;;3.7;100.0;100670;;;;
2022/12/08 04:18:00;;;;;;;2.4;2.4;;;;;;;3.7;100.0;100670;;;;
2022/12/08 04:19:00;;;;;;;2.4;2.4;;;;;;;3.8;100.0;100670;;;;
2022/12/08 04:20:00;;;;;;;2.4;2.4;;;;;;;3.8;100.0;100670;;;;
2022/12/08 04:21:00;;;;;;;2.4;2.4;;;;;;;3.7;100.0;100660;;;;
2022/12/08 04:22:00;;;;;;;2.4;2.4;;;;;;;3.7;100.0;100660;;;;
2022/12/08 04:23:00;;;;;;;2.4;2.4;;;;;;;3.7;100.0;100660;;;;
2022/12/08 04:24:01;;;;;;;2.4;2.4;;;;;;;3.7;100.0;100660;;;;
2022/12/08 04:25:00;;;;;;;2.4;2.4;;;;;;;3.6;100.0;100670;;;;
2022/12/08 04:26:00;;;;;;;2.4;2.4;;;;;;;3.6;100.0;100670;;;;
2022/12/08 04:27:00;;;;;;;2.4;2.4;;;;;;;3.6;100.0;100670;;;;
2022/12/08 04:28:00;;;;;;;2.1;2.1;;;;;;;3.6;100.0;100670;;;;
2022/12/08 04:29:00;;;;;;;2.1;2.1;;;;;;;3.6;100.0;100670;;;;
2022/12/08 04:30:00;;;;;;;2.1;2.1;;;;;;;3.6;100.0;100670;;;;
2022/12/08 04:31:00;;;;;;;2.1;2.1;;;;;;;3.7;100.0;100660;;;;
2022/12/08 04:32:00;;;;;;;2.1;2.1;;;;;;;3.7;100.0;100660;;;;
2022/12/08 04:33:00;;;;;;;2.1;2.1;;;;;;;3.7;100.0;100660;;;;
2022/12/08 04:34:00;;;;;;;2.1;2.1;;;;;;;3.7;100.0;100660;;;;
2022/12/08 04:35:00;;;;;;;2.1;2.1;;;;;;;3.8;100.0;100660;;;;
2022/12/08 04:36:01;;;;;;;2.1;2.1;;;;;;;3.8;100.0;100660;;;;
2022/12/08 04:37:00;;;;;;;2.1;2.1;;;;;;;3.7;100.0;100660;;;;
2022/12/08 04:38:00;;;;;;;2.1;2.1;;;;;;;3.7;100.0;100660;;;;
2022/12/08 04:39:00;;;;;;;2.1;2.1;;;;;;;3.7;100.0;100660;;;;
2022/12/08 04:40:00;;;;;;;2.1;2.1;;;;;;;3.7;100.0;100660;;;;
2022/12/08 04:41:00;;;;;;;2.1;2.1;;;;;;;3.7;100.0;100660;;;;
2022/12/08 04:42:00;;;;;;;2.1;2.1;;;;;;;3.7;100.0;100660;;;;
2022/12/08 04:43:00;;;;;;;2.1;2.1;;;;;;;3.7;100.0;100660;;;;
2022/12/08 04:44:00;;;;;;;2.1;2.1;;;;;;;3.7;100.0;100660;;;;
2022/12/08 04:45:00;;;;;;;2.1;2.1;;;;;;;3.7;100.0;100660;;;;
2022/12/08 04:46:00;;;;;;;2.1;2.1;;;;;;;3.7;100.0;100660;;;;
2022/12/08 04:47:00;;;;;;;2.1;2.1;;;;;;;3.7;100.0;100660;;;;
2022/12/08 04:48:01;;;;;;;2.3;2.3;;;;;;;3.7;100.0;100660;;;;
2022/12/08 04:49:00;;;;;;;2.3;2.3;;;;;;;3.7;100.0;100660;;;;
2022/12/08 04:50:00;;;;;;;2.3;2.3;;;;;;;3.7;100.0;100660;;;;
2022/12/08 04:51:00;;;;;;;2.3;2.3;;;;;;;3.7;100.0;100660;;;;
2022/12/08 04:52:00;;;;;;;2.3;2.3;;;;;;;3.7;100.0;100660;;;;
2022/12/08 04:53:00;;;;;;;2.3;2.3;;;;;;;3.8;100.0;100660;;;;
2022/12/08 04:54:00;;;;;;;2.3;2.3;;;;;;;3.8;100.0;100660;;;;
2022/12/08 04:55:00;;;;;;;2.3;2.3;;;;;;;3.8;100.0;100660;;;;
2022/12/08 04:56:00;;;;;;;2.3;2.3;;;;;;;3.8;100.0;100660;;;;
2022/12/08 04:57:00;;;;;;;2.3;2.3;;;;;;;3.7;100.0;100650;;;;
2022/12/08 04:58:00;;;;;;;2.3;2.3;;;;;;;3.7;100.0;100650;;;;
2022/12/08 04:59:00;;;;;;;2.3;2.3;;;;;;;3.7;100.0;100660;;;;
2022/12/08 05:00:00;;;;;;;2.3;2.3;;;;;;;3.7;100.0;100660;;;;
2022/12/08 05:01:00;;;;;;;2.3;2.3;;;;;;;3.7;100.0;100660;;;;
2022/12/08 05:02:00;;;;;;;2.3;2.3;;;;;;;3.7;100.0;100660;;;;
2022/12/08 05:03:00;;;;;;;2.3;2.3;;;;;;;3.7;100.0;100660;;;;
2022/12/08 05:04:00;;;;;;;2.3;2.3;;;;;;;3.7;100.0;100660;;;;
2022/12/08 05:05:00;;;;;;;2.3;2.3;;;;;;;3.7;100.0;100660;;;;
2022/12/08 05:06:01;;;;;;;2.3;2.3;;;;;;;3.7;100.0;100660;;;;
2022/12/08 05:07:00;;;;;;;2.3;2.3;;;;;;;3.8;100.0;100660;;;;
2022/12/08 05:08:00;;;;;;;2.4;2.4;;;;;;;3.8;100.0;100660;;;;
2022/12/08 05:09:00;;;;;;;2.4;2.4;;;;;;;3.8;100.0;100650;;;;
2022/12/08 05:10:00;;;;;;;2.4;2.4;;;;;;;3.8;100.0;100650;;;;
2022/12/08 05:11:01;;;;;;;2.4;2.4;;;;;;;3.8;100.0;100650;;;;
2022/12/08 05:12:00;;;;;;;2.4;2.4;;;;;;;3.8;100.0;100650;;;;
2022/12/08 05:13:00;;;;;;;2.4;2.4;;;;;;;3.8;100.0;100650;;;;
2022/12/08 05:14:00;;;;;;;2.4;2.4;;;;;;;3.8;100.0;100650;;;;
2022/12/08 05:15:00;;;;;;;2.4;2.4;;;;;;;3.8;100.0;100650;;;;
2022/12/08 05:16:02;;;;;;;2.4;2.4;;;;;;;3.8;100.0;100650;;;;
2022/12/08 05:17:06;;;;;;;2.4;2.4;;;;;;;3.8;100.0;100650;;;;
2022/12/08 05:18:00;;;;;;;2.4;2.4;;;;;;;3.8;100.0;100650;;;;
2022/12/08 05:19:00;;;;;;;2.4;2.4;;;;;;;3.8;100.0;100650;;;;
2022/12/08 05:20:00;;;;;;;2.4;2.4;;;;;;;3.8;100.0;100650;;;;
2022/12/08 05:21:00;;;;;;;2.4;2.4;;;;;;;3.8;100.0;100650;;;;
2022/12/08 05:22:00;;;;;;;2.4;2.4;;;;;;;3.8;100.0;100650;;;;
2022/12/08 05:23:00;;;;;;;2.4;2.4;;;;;;;3.8;100.0;100650;;;;
2022/12/08 05:24:00;;;;;;;2.4;2.4;;;;;;;3.8;100.0;100650;;;;
2022/12/08 05:25:00;;;;;;;2.4;2.4;;;;;;;3.8;100.0;100650;;;;
2022/12/08 05:26:00;;;;;;;2.4;2.4;;;;;;;3.8;100.0;100650;;;;
2022/12/08 05:27:00;;;;;;;2.4;2.4;;;;;;;3.8;100.0;100650;;;;
2022/12/08 05:28:10;;;;;;;2.3;2.3;;;;;;;3.8;100.0;100650;;;;
2022/12/08 05:29:00;;;;;;;2.3;2.3;;;;;;;3.9;100.0;100640;;;;
2022/12/08 05:30:00;;;;;;;2.3;2.3;;;;;;;3.9;100.0;100640;;;;
2022/12/08 05:31:00;;;;;;;2.3;2.3;;;;;;;3.8;100.0;100650;;;;
2022/12/08 05:32:00;;;;;;;2.3;2.3;;;;;;;3.8;100.0;100650;;;;
2022/12/08 05:33:00;;;;;;;2.3;2.3;;;;;;;3.8;100.0;100650;;;;
2022/12/08 05:34:03;;;;;;;2.3;2.3;;;;;;;3.8;100.0;100650;;;;
2022/12/08 05:35:00;;;;;;;2.3;2.3;;;;;;;3.8;100.0;100650;;;;
2022/12/08 05:36:00;;;;;;;2.3;2.3;;;;;;;3.8;100.0;100650;;;;
2022/12/08 05:37:00;;;;;;;2.3;2.3;;;;;;;3.8;100.0;100650;;;;
2022/12/08 05:38:00;;;;;;;2.3;2.3;;;;;;;3.8;100.0;100650;;;;
2022/12/08 05:39:00;;;;;;;2.3;2.3;;;;;;;3.7;100.0;100640;;;;
2022/12/08 05:40:00;;;;;;;2.3;2.3;;;;;;;3.7;100.0;100640;;;;
2022/12/08 05:41:00;;;;;;;2.3;2.3;;;;;;;3.8;100.0;100640;;;;
2022/12/08 05:42:00;;;;;;;2.3;2.3;;;;;;;3.8;100.0;100640;;;;
2022/12/08 05:43:00;;;;;;;2.3;2.3;;;;;;;3.8;100.0;100640;;;;
2022/12/08 05:44:00;;;;;;;2.3;2.3;;;;;;;3.8;100.0;100640;;;;
2022/12/08 05:45:00;;;;;;;2.3;2.3;;;;;;;3.7;100.0;100640;;;;
2022/12/08 05:46:00;;;;;;;2.3;2.3;;;;;;;3.7;100.0;100640;;;;
2022/12/08 05:47:00;;;;;;;2.3;2.3;;;;;;;3.7;100.0;100640;;;;
2022/12/08 05:48:00;;;;;;;2.3;2.3;;;;;;;3.7;100.0;100640;;;;
2022/12/08 05:49:00;;;;;;;2.3;2.3;;;;;;;3.7;100.0;100630;;;;
2022/12/08 05:50:00;;;;;;;2.3;2.3;;;;;;;3.7;100.0;100630;;;;
2022/12/08 05:51:00;;;;;;;2.3;2.3;;;;;;;3.7;100.0;100630;;;;
2022/12/08 05:52:00;;;;;;;2.3;2.3;;;;;;;3.7;100.0;100630;;;;
2022/12/08 05:53:00;;;;;;;2.3;2.3;;;;;;;3.7;100.0;100630;;;;
2022/12/08 05:54:00;;;;;;;2.3;2.3;;;;;;;3.7;100.0;100630;;;;
2022/12/08 05:55:00;;;;;;;2.3;2.3;;;;;;;3.7;100.0;100630;;;;
2022/12/08 05:56:00;;;;;;;2.3;2.3;;;;;;;3.7;100.0;100630;;;;
2022/12/08 05:57:00;;;;;;;2.3;2.3;;;;;;;3.6;100.0;100630;;;;
2022/12/08 05:58:07;;;;;;;2.3;2.3;;;;;;;3.6;100.0;100630;;;;
2022/12/08 05:59:00;;;;;;;2.3;2.3;;;;;;;3.6;100.0;100630;;;;
2022/12/08 06:00:00;;;;;;;2.3;2.3;;;;;;;3.6;100.0;100630;;;;
2022/12/08 06:01:00;;;;;;;2.3;2.3;;;;;;;3.5;100.0;100630;;;;
2022/12/08 06:02:00;;;;;;;2.3;2.3;;;;;;;3.5;100.0;100630;;;;
2022/12/08 06:03:00;;;;;;;2.3;2.3;;;;;;;3.6;100.0;100630;;;;
2022/12/08 06:04:01;;;;;;;2.3;2.3;;;;;;;3.6;100.0;100630;;;;
2022/12/08 06:05:00;;;;;;;2.3;2.3;;;;;;;3.6;100.0;100630;;;;
2022/12/08 06:06:00;;;;;;;2.3;2.3;;;;;;;3.6;100.0;100630;;;;
2022/12/08 06:07:00;;;;;;;2.3;2.3;;;;;;;3.7;100.0;100630;;;;
2022/12/08 06:08:00;;;;;;;2.4;2.4;;;;;;;3.7;100.0;100630;;;;
2022/12/08 06:09:02;;;;;;;2.4;2.4;;;;;;;3.6;100.0;100630;;;;
2022/12/08 06:10:00;;;;;;;2.4;2.4;;;;;;;3.6;100.0;100630;;;;
2022/12/08 06:11:00;;;;;;;2.4;2.4;;;;;;;3.6;100.0;100630;;;;
2022/12/08 06:12:00;;;;;;;2.4;2.4;;;;;;;3.6;100.0;100630;;;;
2022/12/08 06:13:00;;;;;;;2.4;2.4;;;;;;;3.5;100.0;100620;;;;
2022/12/08 06:14:00;;;;;;;2.4;2.4;;;;;;;3.5;100.0;100620;;;;
2022/12/08 06:15:00;;;;;;;2.4;2.4;;;;;;;3.6;100.0;100620;;;;
2022/12/08 06:16:07;;;;;;;2.4;2.4;;;;;;;3.6;100.0;100620;;;;
2022/12/08 06:17:00;;;;;;;2.4;2.4;;;;;;;3.6;100.0;100620;;;;
2022/12/08 06:18:00;;;;;;;2.4;2.4;;;;;;;3.6;100.0;100620;;;;
2022/12/08 06:19:00;;;;;;;2.4;2.4;;;;;;;3.6;100.0;100620;;;;
2022/12/08 06:20:00;;;;;;;2.4;2.4;;;;;;;3.6;100.0;100620;;;;
2022/12/08 06:21:04;;;;;;;2.4;2.4;;;;;;;3.5;100.0;100620;;;;
2022/12/08 06:22:00;;;;;;;2.4;2.4;;;;;;;3.5;100.0;100620;;;;
2022/12/08 06:23:00;;;;;;;2.4;2.4;;;;;;;3.5;100.0;100620;;;;
2022/12/08 06:24:00;;;;;;;2.4;2.4;;;;;;;3.5;100.0;100620;;;;
2022/12/08 06:25:00;;;;;;;2.4;2.4;;;;;;;3.5;100.0;100630;;;;
2022/12/08 06:26:02;;;;;;;2.4;2.4;;;;;;;3.5;100.0;100630;;;;
2022/12/08 06:27:00;;;;;;;2.4;2.4;;;;;;;3.5;100.0;100620;;;;
2022/12/08 06:28:00;;;;;;;2.3;2.3;;;;;;;3.5;100.0;100620;;;;
2022/12/08 06:29:00;;;;;;;2.3;2.3;;;;;;;3.6;100.0;100620;;;;
2022/12/08 06:30:00;;;;;;;2.3;2.3;;;;;;;3.6;100.0;100620;;;;
2022/12/08 06:31:05;;;;;;;2.3;2.3;;;;;;;3.7;100.0;100610;;;;
2022/12/08 06:32:00;;;;;;;2.3;2.3;;;;;;;3.7;100.0;100610;;;;
2022/12/08 06:33:00;;;;;;;2.3;2.3;;;;;;;3.5;100.0;100610;;;;
2022/12/08 06:34:00;;;;;;;2.3;2.3;;;;;;;3.5;100.0;100610;;;;
2022/12/08 06:35:00;;;;;;;2.3;2.3;;;;;;;3.5;100.0;100610;;;;
2022/12/08 06:36:00;;;;;;;2.3;2.3;;;;;;;3.5;100.0;100610;;;;